createdAt,value
2018-06-30T00:02:57.188Z,20.20
2018-06-30T00:07:01.549Z,20.10
2018-06-30T00:11:05.822Z,20.10
2018-06-30T00:15:10.220Z,20.00
2018-06-30T00:19:14.482Z,19.80
2018-06-30T00:23:18.733Z,19.60
2018-06-30T00:27:29.395Z,19.60
2018-06-30T00:31:33.703Z,19.40
2018-06-30T00:35:38.092Z,19.10
2018-06-30T00:39:42.380Z,19.10
2018-06-30T00:43:46.578Z,18.90
2018-06-30T00:47:51.266Z,18.90
2018-06-30T00:51:55.558Z,18.80
2018-06-30T00:55:59.779Z,18.60
2018-06-30T01:00:04.251Z,18.40
2018-06-30T01:04:08.619Z,18.30
2018-06-30T01:08:12.911Z,18.10
2018-06-30T01:12:17.385Z,17.90
2018-06-30T01:16:21.668Z,17.90
2018-06-30T01:20:25.901Z,17.70
2018-06-30T01:24:30.192Z,17.60
2018-06-30T01:28:34.400Z,17.60
2018-06-30T01:32:38.880Z,17.50
2018-06-30T01:36:43.122Z,17.20
2018-06-30T01:40:47.330Z,17.10
2018-06-30T01:44:51.605Z,16.80
2018-06-30T01:48:55.839Z,16.70
2018-06-30T01:53:00.155Z,16.70
2018-06-30T01:57:04.462Z,16.50
2018-06-30T02:01:08.853Z,16.40
2018-06-30T02:05:13.240Z,16.30
2018-06-30T02:09:17.511Z,16.10
2018-06-30T02:13:21.801Z,16.00
2018-06-30T02:17:26.040Z,15.90
2018-06-30T02:21:30.290Z,15.80
2018-06-30T02:25:34.556Z,15.70
2018-06-30T02:29:39.067Z,15.60
2018-06-30T02:33:43.301Z,15.50
2018-06-30T02:37:47.553Z,15.40
2018-06-30T02:41:52.227Z,15.40
2018-06-30T02:45:56.578Z,15.30
2018-06-30T02:50:00.741Z,15.20
2018-06-30T02:54:05.124Z,15.10
2018-06-30T02:58:09.322Z,15.10
2018-06-30T03:02:13.696Z,15.00
2018-06-30T03:06:17.927Z,14.90
2018-06-30T03:10:22.137Z,14.90
2018-06-30T03:14:26.480Z,14.80
2018-06-30T03:18:30.997Z,14.80
2018-06-30T03:22:35.248Z,14.80
2018-06-30T03:26:39.544Z,14.80
2018-06-30T03:30:43.841Z,14.70
2018-06-30T03:34:48.069Z,14.70
2018-06-30T03:38:52.469Z,14.80
2018-06-30T03:42:57.020Z,14.80
2018-06-30T03:47:01.376Z,14.90
2018-06-30T03:51:05.787Z,15.00
2018-06-30T03:55:10.088Z,15.10
2018-06-30T03:59:14.452Z,15.10
2018-06-30T04:03:18.742Z,15.20
2018-06-30T04:07:23.356Z,15.20
2018-06-30T04:11:27.722Z,15.20
2018-06-30T04:15:31.974Z,15.20
2018-06-30T04:19:36.174Z,15.30
2018-06-30T04:23:40.538Z,15.30
2018-06-30T04:27:44.874Z,15.40
2018-06-30T04:31:49.136Z,15.40
2018-06-30T04:35:53.461Z,15.50
2018-06-30T04:39:57.758Z,15.60
2018-06-30T04:44:02.161Z,15.70
2018-06-30T04:48:06.503Z,15.70
2018-06-30T04:52:10.790Z,15.80
2018-06-30T04:56:15.202Z,16.00
2018-06-30T05:00:19.480Z,16.00
2018-06-30T05:04:24.214Z,16.10
2018-06-30T05:08:28.674Z,16.20
2018-06-30T05:12:32.927Z,16.40
2018-06-30T05:16:37.213Z,16.50
2018-06-30T05:20:41.552Z,16.60
2018-06-30T05:24:45.799Z,16.80
2018-06-30T05:28:50.052Z,16.90
2018-06-30T05:32:54.400Z,17.00
2018-06-30T05:36:58.835Z,17.10
2018-06-30T05:41:04.644Z,17.30
2018-06-30T05:45:10.575Z,17.50
2018-06-30T05:49:15.137Z,17.90
2018-06-30T05:53:19.473Z,18.10
2018-06-30T05:57:23.737Z,18.30
2018-06-30T06:01:28.243Z,18.50
2018-06-30T06:05:32.653Z,18.70
2018-06-30T06:09:41.405Z,19.00
2018-06-30T06:13:45.656Z,19.20
2018-06-30T06:17:50.232Z,19.60
2018-06-30T06:21:54.717Z,19.80
2018-06-30T06:25:59.055Z,20.00
2018-06-30T06:30:04.204Z,20.20
2018-06-30T06:34:08.496Z,20.30
2018-06-30T06:38:12.861Z,20.40
2018-06-30T06:42:17.123Z,20.50
2018-06-30T06:46:21.377Z,20.70
2018-06-30T06:50:25.701Z,20.90
2018-06-30T06:54:30.096Z,21.10
2018-06-30T06:58:34.370Z,21.20
2018-06-30T07:02:38.829Z,21.50
2018-06-30T07:06:43.086Z,21.70
2018-06-30T07:10:47.797Z,22.00
2018-06-30T07:14:52.046Z,22.10
2018-06-30T07:18:56.312Z,22.20
2018-06-30T07:23:00.552Z,22.20
2018-06-30T07:27:04.848Z,22.30
2018-06-30T07:31:09.485Z,22.50
2018-06-30T07:35:13.809Z,22.70
2018-06-30T07:39:18.076Z,22.70
2018-06-30T07:43:22.480Z,22.90
2018-06-30T07:47:26.873Z,23.20
2018-06-30T07:51:31.319Z,23.30
2018-06-30T07:55:35.661Z,23.40
2018-06-30T07:59:39.990Z,23.60
2018-06-30T08:03:44.408Z,23.80
2018-06-30T08:07:48.796Z,24.00
2018-06-30T08:11:53.434Z,24.40
2018-06-30T08:15:57.689Z,24.70
2018-06-30T08:20:02.098Z,24.80
2018-06-30T08:24:06.552Z,24.90
2018-06-30T08:28:10.875Z,24.90
2018-06-30T08:32:15.234Z,25.30
2018-06-30T08:36:19.516Z,25.60
2018-06-30T08:40:23.827Z,25.80
2018-06-30T08:44:28.300Z,26.00
2018-06-30T08:48:32.550Z,26.00
2018-06-30T08:52:36.828Z,26.30
2018-06-30T08:56:41.164Z,27.00
2018-06-30T09:00:45.524Z,28.00
2018-06-30T09:04:49.804Z,28.20
2018-06-30T09:08:55.206Z,28.50
2018-06-30T09:12:59.525Z,29.70
2018-06-30T09:17:03.924Z,29.90
2018-06-30T09:21:08.363Z,30.60
2018-06-30T09:25:12.876Z,30.80
2018-06-30T09:29:17.220Z,29.30
2018-06-30T09:33:21.481Z,28.30
2018-06-30T09:37:25.770Z,28.00
2018-06-30T09:41:30.134Z,27.80
2018-06-30T09:45:34.457Z,26.80
2018-06-30T09:49:38.751Z,26.80
2018-06-30T09:53:43.038Z,26.80
2018-06-30T09:57:48.340Z,26.30
2018-06-30T10:01:52.574Z,26.30
2018-06-30T10:05:56.793Z,27.20
2018-06-30T10:10:01.105Z,28.60
2018-06-30T10:14:05.397Z,29.30
2018-06-30T10:18:17.371Z,31.30
2018-06-30T10:22:21.624Z,30.90
2018-06-30T10:26:26.119Z,31.10
2018-06-30T10:30:30.451Z,30.80
2018-06-30T10:34:34.720Z,31.90
2018-06-30T10:38:38.955Z,31.70
2018-06-30T10:42:43.341Z,31.60
2018-06-30T10:46:47.615Z,31.10
2018-06-30T10:50:51.924Z,31.50
2018-06-30T10:54:56.164Z,31.30
2018-06-30T10:59:00.579Z,32.30
2018-06-30T11:03:04.998Z,32.50
2018-06-30T11:07:09.317Z,32.80
2018-06-30T11:11:14.492Z,33.90
2018-06-30T11:15:18.800Z,33.50
2018-06-30T11:19:23.113Z,34.00
2018-06-30T11:23:27.486Z,33.20
2018-06-30T11:27:31.832Z,32.80
2018-06-30T11:31:37.154Z,33.50
2018-06-30T11:35:41.443Z,33.40
2018-06-30T11:39:45.943Z,32.30
2018-06-30T11:43:53.196Z,33.30
2018-06-30T11:47:58.085Z,34.50
2018-06-30T11:52:02.617Z,35.60
2018-06-30T11:56:07.525Z,35.90
2018-06-30T12:00:12.034Z,35.60
2018-06-30T12:04:16.553Z,34.80
2018-06-30T12:08:21.340Z,34.70
2018-06-30T12:12:25.836Z,35.50
2018-06-30T12:16:30.849Z,33.70
2018-06-30T12:20:35.381Z,32.30
2018-06-30T12:24:39.986Z,33.70
2018-06-30T12:28:44.867Z,35.40
2018-06-30T12:32:49.323Z,34.30
2018-06-30T12:36:53.764Z,33.30
2018-06-30T12:40:58.184Z,33.20
2018-06-30T12:45:02.793Z,35.00
2018-06-30T12:49:07.302Z,35.00
2018-06-30T12:53:11.731Z,35.20
2018-06-30T12:57:16.676Z,34.10
2018-06-30T13:01:21.367Z,33.30
2018-06-30T13:05:25.828Z,31.90
2018-06-30T13:09:30.808Z,30.50
2018-06-30T13:13:35.284Z,29.50
2018-06-30T13:17:39.932Z,27.60
2018-06-30T13:21:44.634Z,29.50
2018-06-30T13:25:49.300Z,31.00
2018-06-30T13:29:53.709Z,31.10
2018-06-30T13:33:58.224Z,31.20
2018-06-30T13:38:02.547Z,32.00
2018-06-30T13:42:06.909Z,32.30
2018-06-30T13:46:11.382Z,33.30
2018-06-30T13:50:15.939Z,31.90
2018-06-30T13:54:20.348Z,30.40
2018-06-30T13:58:25.234Z,29.40
2018-06-30T14:02:29.561Z,29.80
2018-06-30T14:06:34.535Z,30.40
2018-06-30T14:10:39.550Z,30.80
2018-06-30T14:14:44.400Z,29.30
2018-06-30T14:18:49.316Z,28.00
2018-06-30T14:22:53.621Z,27.50
2018-06-30T14:26:59.194Z,26.70
2018-06-30T14:31:03.912Z,27.00
2018-06-30T14:35:09.218Z,26.50
2018-06-30T14:39:14.197Z,26.00
2018-06-30T14:43:19.152Z,26.30
2018-06-30T14:47:24.055Z,28.50
2018-06-30T14:51:28.769Z,30.40
2018-06-30T14:55:33.837Z,30.90
2018-06-30T14:59:38.513Z,31.90
2018-06-30T15:03:43.421Z,29.90
2018-06-30T15:07:48.092Z,28.10
2018-06-30T15:11:56.088Z,26.70
2018-06-30T15:16:00.577Z,25.40
2018-06-30T15:20:05.383Z,24.90
2018-06-30T15:24:10.278Z,24.60
2018-06-30T15:28:14.649Z,24.70
2018-06-30T15:32:19.852Z,24.90
2018-06-30T15:36:24.737Z,24.50
2018-06-30T15:40:29.633Z,24.70
2018-06-30T15:44:34.487Z,25.30
2018-06-30T15:48:39.512Z,25.30
2018-06-30T15:52:44.878Z,25.40
2018-06-30T15:56:49.229Z,24.80
2018-06-30T16:00:53.958Z,24.90
2018-06-30T16:04:58.602Z,24.40
2018-06-30T16:09:03.338Z,24.10
2018-06-30T16:13:08.105Z,24.20
2018-06-30T16:17:13.058Z,23.80
2018-06-30T16:21:17.844Z,23.70
2018-06-30T16:25:22.670Z,23.60
2018-06-30T16:29:27.526Z,23.60
2018-06-30T16:33:32.513Z,23.50
2018-06-30T16:37:37.089Z,23.30
2018-06-30T16:41:42.461Z,23.00
2018-06-30T16:45:46.769Z,22.80
2018-06-30T16:49:51.481Z,22.40
2018-06-30T16:53:56.197Z,22.50
2018-06-30T16:58:01.211Z,22.40
2018-06-30T17:02:06.176Z,22.60
2018-06-30T17:06:10.741Z,22.60
2018-06-30T17:10:15.661Z,22.40
2018-06-30T17:14:20.641Z,22.30
2018-06-30T17:18:25.155Z,22.30
2018-06-30T17:22:29.675Z,22.20
2018-06-30T17:26:35.454Z,22.00
2018-06-30T17:30:41.373Z,22.20
2018-06-30T17:34:45.801Z,22.40
2018-06-30T17:38:50.804Z,22.50
2018-06-30T17:42:55.647Z,22.40
2018-06-30T17:47:00.208Z,22.30
2018-06-30T17:51:05.176Z,22.00
2018-06-30T17:55:10.596Z,22.00
2018-06-30T17:59:15.001Z,21.80
2018-06-30T18:03:19.582Z,21.70
2018-06-30T18:07:24.050Z,21.50
2018-06-30T18:11:28.446Z,21.40
2018-06-30T18:15:33.112Z,21.20
2018-06-30T18:19:38.009Z,20.90
2018-06-30T18:23:42.807Z,20.70
2018-06-30T18:27:48.256Z,20.60
2018-06-30T18:31:53.284Z,20.50
2018-06-30T18:35:58.237Z,20.30
2018-06-30T18:40:07.704Z,20.20
2018-06-30T18:44:12.883Z,20.10
2018-06-30T18:48:18.573Z,19.90
2018-06-30T18:52:25.016Z,19.80
2018-06-30T18:56:31.661Z,19.80
2018-06-30T19:00:39.017Z,19.50
2018-06-30T19:04:43.944Z,19.30
2018-06-30T19:08:49.764Z,19.30
2018-06-30T19:12:59.101Z,19.10
2018-06-30T19:17:03.917Z,19.10
2018-06-30T19:21:09.211Z,19.10
2018-06-30T19:25:13.763Z,18.80
2018-06-30T19:29:18.509Z,18.60
2018-06-30T19:33:23.497Z,18.40
2018-06-30T19:37:28.439Z,18.30
2018-06-30T19:41:33.272Z,18.30
2018-06-30T19:45:38.009Z,18.40
2018-06-30T19:49:42.685Z,18.10
2018-06-30T19:53:47.555Z,18.00
2018-06-30T19:57:52.581Z,18.00
2018-06-30T20:01:57.732Z,18.00
2018-06-30T20:06:02.396Z,17.90
2018-06-30T20:10:06.999Z,18.00
2018-06-30T20:14:11.717Z,18.10
2018-06-30T20:18:17.177Z,18.10
2018-06-30T20:22:21.970Z,18.10
2018-06-30T20:26:26.608Z,18.00
2018-06-30T20:30:31.437Z,18.20
2018-06-30T20:34:36.521Z,18.00
2018-06-30T20:38:42.650Z,17.80
2018-06-30T20:42:48.048Z,17.90
2018-06-30T20:46:52.852Z,18.00
2018-06-30T20:50:57.421Z,17.90
2018-06-30T20:55:02.193Z,18.00
2018-06-30T20:59:06.833Z,17.80
2018-06-30T21:03:13.177Z,17.80
2018-06-30T21:07:18.098Z,17.70
2018-06-30T21:11:22.848Z,17.70
2018-06-30T21:15:27.725Z,17.60
2018-06-30T21:19:32.098Z,17.50
2018-06-30T21:23:37.356Z,17.40
2018-06-30T21:27:41.878Z,17.40
2018-06-30T21:31:46.150Z,17.40
2018-06-30T21:35:50.637Z,17.30
2018-06-30T21:39:54.969Z,17.30
2018-06-30T21:43:59.257Z,17.30
2018-06-30T21:48:03.656Z,17.20
2018-06-30T21:52:07.955Z,17.10
2018-06-30T21:56:12.249Z,17.00
2018-06-30T22:00:18.993Z,16.80
2018-06-30T22:04:24.373Z,16.70
2018-06-30T22:08:28.611Z,16.50
2018-06-30T22:12:33.046Z,16.60
2018-06-30T22:16:37.281Z,16.60
2018-06-30T22:20:41.681Z,16.50
2018-06-30T22:24:45.957Z,16.40
2018-06-30T22:28:50.181Z,16.50
2018-06-30T22:32:54.587Z,16.40
2018-06-30T22:36:58.908Z,16.40
2018-06-30T22:41:03.091Z,16.30
2018-06-30T22:45:07.621Z,16.20
2018-06-30T22:49:11.859Z,16.10
2018-06-30T22:53:16.145Z,16.20
2018-06-30T22:57:20.521Z,16.10
2018-06-30T23:01:24.857Z,15.90
2018-06-30T23:05:29.251Z,15.60
2018-06-30T23:09:33.491Z,15.10
2018-06-30T23:13:37.731Z,14.70
2018-06-30T23:17:42.192Z,14.50
2018-06-30T23:21:46.530Z,14.20
2018-06-30T23:25:50.801Z,13.90
2018-06-30T23:29:55.076Z,13.70
2018-06-30T23:33:59.277Z,13.50
2018-06-30T23:38:04.297Z,13.40
2018-06-30T23:42:08.627Z,13.20
2018-06-30T23:46:12.909Z,13.10
2018-06-30T23:50:17.395Z,12.90
2018-06-30T23:54:21.640Z,12.80
2018-06-30T23:58:25.917Z,12.60
